createdAt,value
2022-08-12T00:04:01.638Z,1.7
2022-08-12T00:11:33.971Z,1.7
2022-08-12T00:19:06.293Z,2.4
2022-08-12T00:26:38.628Z,1.8
2022-08-12T00:34:10.942Z,2.1
2022-08-12T00:41:43.256Z,2.0
2022-08-12T00:49:15.583Z,1.6
2022-08-12T00:56:47.944Z,1.7
2022-08-12T01:04:20.276Z,1.8
2022-08-12T01:11:52.590Z,2.7
2022-08-12T01:19:24.909Z,2.1
2022-08-12T01:26:57.275Z,1.8
2022-08-12T01:34:36.199Z,2.2
2022-08-12T01:42:09.045Z,2.3
2022-08-12T01:49:41.361Z,1.8
2022-08-12T01:57:13.712Z,2.1
2022-08-12T02:04:46.030Z,2.3
2022-08-12T02:12:21.746Z,1.2
2022-08-12T02:20:00.094Z,1.8
2022-08-12T02:27:32.436Z,1.5
2022-08-12T02:35:04.760Z,1.7
2022-08-12T02:42:37.074Z,2.1
2022-08-12T02:50:09.425Z,2.2
2022-08-12T02:57:41.782Z,1.3
2022-08-12T03:05:14.092Z,1.6
2022-08-12T03:12:50.809Z,2.1
2022-08-12T03:20:28.032Z,2.0
2022-08-12T03:28:00.787Z,1.4
2022-08-12T03:35:41.500Z,1.2
2022-08-12T03:43:14.126Z,2.1
2022-08-12T03:50:46.450Z,1.3
2022-08-12T03:58:18.903Z,1.6
2022-08-12T04:05:54.503Z,1.1
2022-08-12T04:13:28.877Z,1.5
2022-08-12T04:21:01.199Z,1.6
2022-08-12T04:24:20.808Z,1.6
2022-08-12T04:25:08.132Z,1.6
2022-08-12T04:25:55.442Z,4.1
2022-08-12T04:26:42.781Z,3.8
2022-08-12T04:27:30.146Z,4.6
2022-08-12T04:28:17.485Z,3.0
2022-08-12T04:29:04.790Z,2.9
2022-08-12T04:30:31.655Z,4.0
2022-08-12T04:30:49.401Z,3.2
2022-08-12T04:31:36.845Z,3.5
2022-08-12T04:32:24.160Z,4.0
2022-08-12T04:33:11.474Z,4.0
2022-08-12T04:33:59.020Z,3.4
2022-08-12T04:34:46.355Z,3.5
2022-08-12T04:35:33.780Z,4.3
2022-08-12T04:36:21.114Z,3.1
2022-08-12T04:37:08.440Z,5.0
2022-08-12T04:37:59.528Z,3.6
2022-08-12T04:38:48.124Z,4.5
2022-08-12T04:39:35.786Z,5.2
2022-08-12T04:40:28.448Z,5.2
2022-08-12T04:41:16.138Z,4.5
2022-08-12T04:42:03.557Z,4.4
2022-08-12T04:42:50.994Z,4.5
2022-08-12T04:43:53.833Z,4.4
2022-08-12T04:44:35.592Z,4.5
2022-08-12T04:45:23.045Z,4.6
2022-08-12T04:46:10.358Z,4.3
2022-08-12T04:46:57.666Z,3.6
2022-08-12T04:47:45.085Z,3.6
2022-08-12T04:48:33.109Z,4.3
2022-08-12T04:49:20.438Z,4.3
2022-08-12T04:50:34.501Z,3.0
2022-08-12T04:51:05.208Z,4.1
2022-08-12T04:51:57.677Z,4.7
2022-08-12T04:52:46.891Z,3.3
2022-08-12T04:53:34.321Z,3.4
2022-08-12T04:54:21.641Z,4.1
2022-08-12T04:55:10.599Z,3.3
2022-08-12T04:55:58.028Z,4.9
2022-08-12T04:56:45.501Z,4.5
2022-08-12T04:57:42.793Z,4.5
2022-08-12T04:58:30.248Z,4.5
2022-08-12T04:59:18.357Z,4.9
2022-08-12T05:00:05.824Z,10.7
2022-08-12T05:00:53.202Z,8.5
2022-08-12T05:01:40.705Z,7.1
2022-08-12T05:02:28.044Z,5.6
2022-08-12T05:03:15.446Z,6.9
2022-08-12T05:04:02.838Z,7.0
2022-08-12T05:04:50.233Z,5.2
2022-08-12T05:05:37.686Z,5.7
2022-08-12T05:06:26.517Z,4.4
2022-08-12T05:07:14.446Z,3.6
2022-08-12T05:08:01.865Z,4.3
2022-08-12T05:08:49.193Z,4.5
2022-08-12T05:09:59.949Z,3.7
2022-08-12T05:10:36.032Z,4.1
2022-08-12T05:11:23.555Z,4.1
2022-08-12T05:12:10.863Z,4.2
2022-08-12T05:12:58.187Z,4.8
2022-08-12T05:13:45.693Z,5.1
2022-08-12T05:14:37.413Z,5.1
2022-08-12T05:15:29.391Z,6.8
2022-08-12T05:16:17.631Z,4.6
2022-08-12T05:17:14.476Z,5.8
2022-08-12T05:18:16.778Z,8.6
2022-08-12T05:18:59.392Z,8.6
2022-08-12T05:19:46.833Z,7.2
2022-08-12T05:20:34.148Z,6.8
2022-08-12T05:21:21.448Z,6.0
2022-08-12T05:22:08.890Z,6.4
2022-08-12T05:22:57.473Z,5.4
2022-08-12T05:23:45.504Z,5.9
2022-08-12T05:24:32.942Z,6.1
2022-08-12T05:25:20.977Z,6.0
2022-08-12T05:26:09.643Z,15.9
2022-08-12T05:26:57.085Z,16.1
2022-08-12T05:27:58.091Z,14.0
2022-08-12T05:28:41.890Z,10.9
2022-08-12T05:30:07.127Z,11.3
2022-08-12T05:30:26.624Z,10.9
2022-08-12T05:31:14.062Z,9.5
2022-08-12T05:32:11.364Z,6.7
2022-08-12T05:33:00.266Z,7.7
2022-08-12T05:33:47.850Z,7.3
2022-08-12T05:34:35.172Z,8.3
2022-08-12T05:35:22.625Z,8.2
2022-08-12T05:36:09.981Z,7.8
2022-08-12T05:36:57.352Z,7.2
2022-08-12T05:37:44.701Z,7.1
2022-08-12T05:38:32.041Z,6.9
2022-08-12T05:39:19.401Z,5.3
2022-08-12T05:40:10.855Z,7.0
2022-08-12T05:40:58.892Z,6.3
2022-08-12T05:41:46.309Z,13.4
2022-08-12T05:42:34.775Z,21.2
2022-08-12T05:43:22.197Z,25.5
2022-08-12T05:44:09.646Z,27.9
2022-08-12T05:44:57.180Z,27.8
2022-08-12T05:45:45.015Z,28.6
2022-08-12T05:46:32.384Z,25.0
2022-08-12T05:47:19.890Z,24.5
2022-08-12T05:48:07.218Z,23.6
2022-08-12T05:48:54.562Z,20.0
2022-08-12T05:49:41.942Z,19.0
2022-08-12T05:50:29.281Z,14.6
2022-08-12T05:51:16.602Z,13.6
2022-08-12T05:52:04.012Z,13.3
2022-08-12T05:52:52.945Z,10.5
2022-08-12T05:53:41.340Z,12.5
2022-08-12T05:54:54.375Z,12.3
2022-08-12T05:55:31.090Z,8.8
2022-08-12T05:56:18.787Z,10.7
2022-08-12T05:57:06.100Z,9.3
2022-08-12T05:57:53.408Z,10.9
2022-08-12T05:58:40.712Z,10.8
2022-08-12T05:59:28.073Z,11.5
2022-08-12T06:00:15.391Z,10.7
2022-08-12T06:02:09.111Z,9.5
2022-08-12T06:02:10.636Z,9.8
2022-08-12T06:02:57.333Z,9.2
2022-08-12T06:03:44.810Z,9.9
2022-08-12T06:04:32.141Z,12.5
2022-08-12T06:05:19.461Z,13.8
2022-08-12T06:06:06.875Z,11.0
2022-08-12T06:06:54.189Z,11.4
2022-08-12T06:08:02.309Z,10.3
2022-08-12T06:08:38.833Z,10.7
2022-08-12T06:09:26.185Z,8.5
2022-08-12T06:10:13.494Z,7.1
2022-08-12T06:11:00.826Z,6.8
2022-08-12T06:12:05.641Z,5.6
2022-08-12T06:12:45.472Z,5.2
2022-08-12T06:13:54.125Z,7.0
2022-08-12T06:14:30.181Z,5.5
2022-08-12T06:15:17.574Z,6.1
2022-08-12T06:16:04.907Z,5.3
2022-08-12T06:16:52.246Z,4.7
2022-08-12T06:17:39.658Z,4.5
2022-08-12T06:18:29.859Z,3.8
2022-08-12T06:19:17.493Z,6.7
2022-08-12T06:20:28.344Z,5.0
2022-08-12T06:21:02.523Z,5.0
2022-08-12T06:21:49.961Z,4.4
2022-08-12T06:22:37.521Z,8.6
2022-08-12T06:23:24.949Z,8.6
2022-08-12T06:24:12.301Z,8.9
2022-08-12T06:24:59.689Z,8.3
2022-08-12T06:25:47.005Z,7.2
2022-08-12T06:26:34.321Z,6.8
2022-08-12T06:27:21.849Z,9.3
2022-08-12T06:28:09.491Z,9.6
2022-08-12T06:28:56.812Z,6.9
2022-08-12T06:30:10.033Z,7.3
2022-08-12T06:30:41.583Z,5.9
2022-08-12T06:31:29.006Z,6.5
2022-08-12T06:32:16.323Z,6.4
2022-08-12T06:33:18.462Z,4.9
2022-08-12T06:35:23.859Z,5.9
2022-08-12T06:35:26.181Z,5.8
2022-08-12T06:35:58.812Z,5.3
2022-08-12T06:36:46.420Z,4.0
2022-08-12T06:37:33.724Z,4.3
2022-08-12T06:38:21.042Z,5.3
2022-08-12T06:39:14.415Z,5.2
2022-08-12T06:40:03.985Z,7.4
2022-08-12T06:40:51.631Z,7.2
2022-08-12T06:41:38.932Z,7.6
2022-08-12T06:42:31.518Z,7.7
2022-08-12T06:43:20.605Z,11.7
2022-08-12T06:44:08.197Z,7.8
2022-08-12T06:44:55.551Z,8.0
2022-08-12T06:45:45.750Z,6.5
2022-08-12T06:46:33.973Z,6.1
2022-08-12T06:47:21.393Z,6.4
2022-08-12T06:48:08.714Z,6.4
2022-08-12T06:48:56.058Z,5.6
2022-08-12T06:49:43.450Z,6.5
2022-08-12T06:50:30.770Z,5.7
2022-08-12T06:52:07.407Z,6.1
2022-08-12T06:52:54.742Z,4.9
2022-08-12T06:53:42.054Z,6.6
2022-08-12T06:54:31.650Z,5.6
2022-08-12T06:55:19.640Z,5.5
2022-08-12T06:56:10.653Z,4.2
2022-08-12T06:58:08.150Z,4.2
2022-08-12T06:58:08.293Z,4.8
2022-08-12T06:58:54.406Z,4.4
2022-08-12T06:59:41.835Z,4.6
2022-08-12T07:00:32.381Z,5.3
2022-08-12T07:01:20.304Z,4.3
2022-08-12T07:02:07.713Z,4.2
2022-08-12T07:02:55.035Z,4.8
2022-08-12T07:03:42.354Z,3.8
2022-08-12T07:04:38.464Z,3.5
2022-08-12T07:05:26.242Z,3.9
2022-08-12T07:06:13.656Z,3.5
2022-08-12T07:07:00.974Z,3.9
2022-08-12T07:07:48.302Z,3.9
2022-08-12T07:08:35.703Z,4.2
2022-08-12T07:10:04.465Z,3.3
2022-08-12T07:10:20.309Z,4.7
2022-08-12T07:11:07.722Z,3.6
2022-08-12T07:11:55.024Z,4.2
2022-08-12T07:12:42.663Z,3.4
2022-08-12T07:13:30.137Z,4.0
2022-08-12T07:14:17.510Z,3.3
2022-08-12T07:15:04.844Z,3.9
2022-08-12T07:15:52.158Z,4.3
2022-08-12T07:16:39.473Z,4.1
2022-08-12T07:17:27.033Z,3.9
2022-08-12T07:18:14.337Z,3.2
2022-08-12T07:19:02.005Z,2.9
2022-08-12T07:19:49.470Z,3.1
2022-08-12T07:20:52.089Z,3.4
2022-08-12T07:22:00.295Z,5.2
2022-08-12T07:22:31.407Z,3.6
2022-08-12T07:23:18.789Z,6.7
2022-08-12T07:24:06.113Z,8.8
2022-08-12T07:24:53.429Z,6.1
2022-08-12T07:25:41.797Z,16.7
2022-08-12T07:26:29.186Z,23.3
2022-08-12T07:27:16.509Z,16.4
2022-08-12T07:28:03.846Z,15.2
2022-08-12T07:29:01.147Z,16.1
2022-08-12T07:29:57.876Z,15.9
2022-08-12T07:30:45.899Z,11.4
2022-08-12T07:31:33.323Z,16.0
2022-08-12T07:32:20.634Z,11.8
2022-08-12T07:33:07.971Z,12.7
2022-08-12T07:33:55.397Z,13.9
2022-08-12T07:34:42.717Z,9.6
2022-08-12T07:35:30.062Z,9.1
2022-08-12T07:36:17.457Z,9.0
2022-08-12T07:37:04.776Z,8.8
2022-08-12T07:37:55.950Z,8.7
2022-08-12T07:38:43.371Z,7.1
2022-08-12T07:39:30.781Z,9.1
2022-08-12T07:40:18.188Z,6.7
2022-08-12T07:41:05.613Z,5.6
2022-08-12T07:41:52.921Z,6.3
2022-08-12T07:42:40.438Z,5.8
2022-08-12T07:43:27.906Z,4.9
2022-08-12T07:44:15.217Z,6.1
2022-08-12T07:45:02.525Z,6.0
2022-08-12T07:45:49.962Z,5.7
2022-08-12T07:46:37.321Z,5.7
2022-08-12T07:47:24.641Z,4.8
2022-08-12T07:48:12.555Z,4.7
2022-08-12T07:49:00.040Z,5.7
2022-08-12T07:50:05.633Z,5.4
2022-08-12T07:50:44.649Z,5.2
2022-08-12T07:51:32.073Z,6.5
2022-08-12T07:52:19.414Z,6.0
2022-08-12T07:53:06.731Z,5.5
2022-08-12T07:54:00.476Z,6.3
2022-08-12T07:54:48.647Z,5.1
2022-08-12T07:55:36.036Z,5.4
2022-08-12T07:56:23.374Z,15.2
2022-08-12T07:57:10.843Z,17.0
2022-08-12T07:57:58.170Z,10.8
2022-08-12T07:58:47.208Z,10.1
2022-08-12T07:59:34.623Z,10.3
2022-08-12T08:00:22.116Z,9.5
2022-08-12T08:01:12.062Z,8.7
2022-08-12T08:01:59.633Z,8.7
2022-08-12T08:02:47.609Z,7.8
2022-08-12T08:03:34.999Z,7.3
2022-08-12T08:04:32.297Z,5.9
2022-08-12T08:05:19.714Z,7.0
2022-08-12T08:06:07.050Z,7.0
2022-08-12T08:07:04.348Z,6.4
2022-08-12T08:07:51.769Z,6.2
2022-08-12T08:08:39.085Z,7.0
2022-08-12T08:09:28.827Z,7.2
2022-08-12T08:10:16.260Z,8.2
2022-08-12T08:11:04.314Z,6.4
2022-08-12T08:11:51.819Z,7.0
2022-08-12T08:12:39.368Z,6.7
2022-08-12T08:13:26.877Z,9.4
2022-08-12T08:14:14.353Z,9.0
2022-08-12T08:15:01.672Z,7.3
2022-08-12T08:16:03.051Z,6.4
2022-08-12T08:16:46.290Z,5.0
2022-08-12T08:17:33.696Z,6.6
2022-08-12T08:18:26.904Z,5.4
2022-08-12T08:19:14.670Z,4.6
2022-08-12T08:20:04.415Z,5.5
2022-08-12T08:20:51.978Z,4.9
2022-08-12T08:21:39.296Z,6.3
2022-08-12T08:22:41.921Z,5.2
2022-08-12T08:23:29.439Z,4.8
2022-08-12T08:24:21.206Z,5.6
2022-08-12T08:25:34.861Z,5.3
2022-08-12T08:26:05.912Z,6.7
2022-08-12T08:26:53.355Z,6.5
2022-08-12T08:27:40.662Z,6.2
2022-08-12T08:28:27.979Z,6.8
2022-08-12T08:29:15.400Z,10.2
2022-08-12T08:30:02.773Z,8.7
2022-08-12T08:30:51.207Z,7.1
2022-08-12T08:31:39.844Z,6.9
2022-08-12T08:32:28.876Z,7.4
2022-08-12T08:33:24.732Z,10.9
2022-08-12T08:34:33.616Z,9.7
2022-08-12T08:35:11.358Z,10.1
2022-08-12T08:35:59.043Z,8.9
2022-08-12T08:36:46.471Z,9.9
2022-08-12T08:37:37.152Z,9.6
2022-08-12T08:38:32.993Z,12.9
2022-08-12T08:39:22.337Z,11.9
2022-08-12T08:40:09.722Z,12.8
2022-08-12T08:40:57.045Z,10.6
2022-08-12T08:42:15.965Z,9.2
2022-08-12T08:42:41.745Z,9.0
2022-08-12T08:43:43.814Z,11.0
2022-08-12T08:44:26.412Z,9.2
2022-08-12T08:45:13.821Z,8.3
2022-08-12T08:46:01.174Z,9.1
2022-08-12T08:46:48.476Z,7.1
2022-08-12T08:47:35.953Z,7.5
2022-08-12T08:48:23.267Z,7.4
2022-08-12T08:49:11.314Z,7.6
2022-08-12T08:49:58.773Z,7.5
2022-08-12T08:50:46.081Z,9.2
2022-08-12T08:51:43.405Z,6.0
2022-08-12T08:52:40.639Z,5.8
2022-08-12T08:53:28.071Z,5.3
2022-08-12T08:54:15.468Z,6.2
2022-08-12T08:55:02.770Z,6.7
2022-08-12T08:56:04.676Z,4.5
2022-08-12T08:56:47.516Z,6.6
2022-08-12T08:57:43.115Z,5.4
2022-08-12T08:58:31.517Z,5.4
2022-08-12T08:59:18.938Z,12.5
2022-08-12T09:00:06.255Z,9.8
2022-08-12T09:00:53.570Z,6.5
2022-08-12T09:01:41.040Z,11.1
2022-08-12T09:02:31.918Z,17.4
2022-08-12T09:05:09.770Z,12.0
2022-08-12T09:05:11.234Z,9.7
2022-08-12T09:05:16.435Z,9.2
2022-08-12T09:06:11.261Z,8.9
2022-08-12T09:07:16.864Z,8.4
2022-08-12T09:08:14.115Z,7.3
2022-08-12T09:08:59.073Z,8.2
2022-08-12T09:10:02.817Z,5.6
2022-08-12T09:12:38.481Z,5.4
2022-08-12T09:14:12.608Z,5.7
2022-08-12T09:14:29.170Z,5.0
2022-08-12T09:15:19.242Z,5.3
2022-08-12T09:16:06.706Z,5.1
2022-08-12T09:16:54.030Z,8.1
2022-08-12T09:18:41.148Z,10.0
2022-08-12T09:19:28.704Z,11.5
2022-08-12T09:20:16.431Z,8.1
2022-08-12T09:21:06.486Z,10.6
2022-08-12T09:21:54.552Z,8.0
2022-08-12T09:22:42.738Z,8.6
2022-08-12T09:24:33.827Z,8.3
2022-08-12T09:25:25.558Z,7.7
2022-08-12T09:26:13.545Z,6.8
2022-08-12T09:27:00.917Z,6.7
2022-08-12T09:30:10.472Z,5.6
2022-08-12T09:30:41.622Z,8.0
2022-08-12T09:32:03.473Z,8.1
2022-08-12T09:32:57.038Z,18.8
2022-08-12T09:34:26.738Z,11.9
2022-08-12T09:34:29.233Z,13.4
2022-08-12T09:35:28.216Z,8.8
2022-08-12T09:36:15.671Z,8.3
2022-08-12T09:37:20.036Z,6.5
2022-08-12T09:38:27.735Z,7.6
2022-08-12T09:40:00.671Z,7.0
2022-08-12T09:40:57.029Z,6.3
2022-08-12T09:42:32.763Z,6.2
2022-08-12T09:42:35.204Z,6.1
2022-08-12T09:43:15.212Z,5.7
2022-08-12T09:44:00.813Z,6.1
2022-08-12T09:44:48.894Z,5.2
2022-08-12T09:46:11.011Z,6.5
2022-08-12T09:46:43.555Z,5.3
2022-08-12T09:47:34.357Z,5.5
2022-08-12T09:48:22.300Z,5.7
2022-08-12T09:49:13.115Z,4.4
2022-08-12T09:50:03.899Z,4.3
2022-08-12T09:50:55.281Z,4.8
2022-08-12T09:51:44.066Z,5.9
2022-08-12T09:52:32.234Z,4.8
2022-08-12T09:53:36.169Z,4.9
2022-08-12T09:54:32.991Z,5.2
2022-08-12T09:56:07.168Z,5.7
2022-08-12T09:56:59.709Z,5.7
2022-08-12T09:58:06.078Z,5.3
2022-08-12T09:58:44.740Z,6.5
2022-08-12T09:59:03.382Z,6.4
2022-08-12T10:00:13.502Z,4.9
2022-08-12T10:00:52.783Z,5.5
2022-08-12T10:02:41.839Z,6.6
2022-08-12T10:02:52.630Z,5.7
2022-08-12T10:03:35.504Z,4.9
2022-08-12T10:04:32.784Z,5.1
2022-08-12T10:05:20.634Z,5.3
2022-08-12T10:06:20.529Z,5.7
2022-08-12T10:07:05.475Z,4.9
2022-08-12T10:08:02.777Z,5.2
2022-08-12T10:08:52.454Z,3.7
2022-08-12T10:09:58.542Z,4.7
2022-08-12T10:10:42.413Z,5.3
2022-08-12T10:11:29.953Z,4.0
2022-08-12T10:19:17.567Z,3.8
2022-08-12T10:26:50.242Z,4.5
2022-08-12T10:34:26.302Z,3.7
2022-08-12T10:42:00.153Z,4.2
2022-08-12T10:50:03.694Z,4.7
2022-08-12T10:58:13.330Z,3.9
2022-08-12T10:58:30.847Z,4.6
2022-08-12T10:59:17.675Z,3.7
2022-08-12T11:00:30.265Z,4.2
2022-08-12T11:01:50.331Z,3.3
2022-08-12T11:04:19.666Z,4.0
2022-08-12T11:04:25.351Z,4.2
2022-08-12T11:04:27.679Z,2.9
2022-08-12T11:07:02.721Z,3.2
2022-08-12T11:07:02.816Z,5.2
2022-08-12T11:07:09.832Z,4.6
2022-08-12T11:08:33.971Z,4.9
2022-08-12T11:08:51.844Z,4.5
2022-08-12T11:09:51.295Z,4.2
2022-08-12T11:10:38.133Z,3.6
2022-08-12T11:12:35.472Z,4.5
2022-08-12T11:12:55.743Z,4.4
2022-08-12T11:13:20.130Z,4.1
2022-08-12T11:14:50.540Z,3.9
2022-08-12T11:15:21.344Z,3.2
2022-08-12T11:16:21.963Z,6.6
2022-08-12T11:17:43.350Z,5.9
2022-08-12T11:18:06.572Z,6.6
2022-08-12T11:19:03.018Z,6.4
2022-08-12T11:19:56.166Z,6.7
2022-08-12T11:20:43.492Z,5.6
2022-08-12T11:21:56.893Z,4.5
2022-08-12T11:22:39.428Z,5.7
2022-08-12T11:23:37.222Z,6.8
2022-08-12T11:24:31.749Z,5.4
2022-08-12T11:25:19.790Z,5.7
2022-08-12T11:26:10.410Z,4.6
2022-08-12T11:27:51.336Z,6.6
2022-08-12T11:28:38.977Z,5.0
2022-08-12T11:29:26.345Z,5.6
2022-08-12T11:30:31.593Z,4.2
2022-08-12T11:31:13.962Z,4.4
2022-08-12T11:32:02.712Z,5.5
2022-08-12T11:32:50.375Z,4.1
2022-08-12T11:34:04.729Z,4.4
2022-08-12T11:34:53.225Z,6.0
2022-08-12T11:35:32.374Z,6.0
2022-08-12T11:36:24.648Z,5.8
2022-08-12T11:37:24.732Z,6.3
2022-08-12T11:38:10.776Z,5.3
2022-08-12T11:38:58.205Z,4.3
2022-08-12T11:40:03.072Z,5.2
2022-08-12T11:40:42.831Z,5.8
2022-08-12T11:41:31.436Z,5.5
2022-08-12T11:42:32.192Z,7.9
2022-08-12T11:43:19.969Z,5.9
2022-08-12T11:44:37.042Z,6.2
2022-08-12T11:45:05.175Z,9.6
2022-08-12T11:45:53.285Z,9.2
2022-08-12T11:46:44.128Z,7.6
2022-08-12T11:47:40.478Z,7.4
2022-08-12T11:48:28.321Z,5.4
2022-08-12T11:49:30.954Z,6.7
2022-08-12T11:50:19.983Z,6.2
2022-08-12T11:51:08.025Z,6.0
2022-08-12T11:51:58.015Z,5.2
2022-08-12T11:53:59.568Z,4.9
2022-08-12T11:53:59.964Z,4.5
2022-08-12T11:54:39.956Z,3.6
2022-08-12T11:55:45.362Z,7.8
2022-08-12T11:56:38.461Z,5.3
2022-08-12T11:58:07.221Z,7.4
2022-08-12T11:59:16.205Z,6.3
2022-08-12T12:02:00.875Z,6.0
2022-08-12T12:02:16.370Z,5.6
2022-08-12T12:03:06.319Z,6.6
2022-08-12T12:03:54.782Z,7.2
2022-08-12T12:04:42.196Z,5.6
2022-08-12T12:05:39.702Z,5.1
2022-08-12T12:06:26.962Z,12.3
2022-08-12T12:07:14.595Z,7.6
2022-08-12T12:08:41.203Z,6.0
2022-08-12T12:09:00.699Z,5.3
2022-08-12T12:09:52.740Z,5.7
2022-08-12T12:10:40.960Z,5.2
2022-08-12T12:11:28.675Z,4.9
2022-08-12T12:12:25.982Z,4.9
2022-08-12T12:13:22.976Z,4.3
2022-08-12T12:14:11.200Z,6.0
2022-08-12T12:15:01.621Z,5.2
2022-08-12T12:15:54.009Z,7.0
2022-08-12T12:16:50.052Z,5.2
2022-08-12T12:17:38.748Z,5.4
2022-08-12T12:18:30.846Z,9.7
2022-08-12T12:19:19.205Z,9.0
2022-08-12T12:20:06.595Z,12.1
2022-08-12T12:20:53.942Z,7.1
2022-08-12T12:21:47.058Z,7.7
2022-08-12T12:22:36.946Z,7.1
2022-08-12T12:23:29.275Z,6.6
2022-08-12T12:24:21.681Z,6.6
2022-08-12T12:25:12.977Z,6.6
2022-08-12T12:26:07.888Z,6.9
2022-08-12T12:26:56.043Z,6.3
2022-08-12T12:28:05.839Z,7.5
2022-08-12T12:28:54.366Z,5.1
2022-08-12T12:30:17.724Z,4.1
2022-08-12T12:30:39.617Z,5.6
2022-08-12T12:32:10.758Z,5.8
2022-08-12T12:32:34.196Z,5.8
2022-08-12T12:33:21.651Z,7.4
2022-08-12T12:34:08.967Z,6.8
2022-08-12T12:35:18.291Z,7.2
2022-08-12T12:36:18.418Z,5.9
2022-08-12T12:36:54.775Z,5.9
2022-08-12T12:38:05.133Z,4.6
2022-08-12T12:38:39.632Z,5.9
2022-08-12T12:39:28.019Z,7.4
2022-08-12T12:40:15.381Z,8.9
2022-08-12T12:41:16.704Z,8.5
2022-08-12T12:42:42.141Z,6.8
2022-08-12T12:43:00.402Z,10.3
2022-08-12T12:44:04.164Z,9.4
2022-08-12T12:44:53.591Z,9.3
2022-08-12T12:45:44.650Z,8.2
2022-08-12T12:46:33.552Z,6.4
2022-08-12T12:47:29.114Z,6.2
2022-08-12T12:48:17.633Z,6.6
2022-08-12T12:49:10.942Z,6.2
2022-08-12T12:49:58.580Z,8.0
2022-08-12T12:50:51.660Z,6.2
2022-08-12T12:51:55.176Z,4.5
2022-08-12T12:52:36.780Z,4.6
2022-08-12T12:54:05.797Z,4.0
2022-08-12T12:54:24.443Z,4.8
2022-08-12T12:55:16.476Z,4.0
2022-08-12T12:56:03.871Z,5.3
2022-08-12T12:56:51.179Z,6.0
2022-08-12T12:58:00.205Z,6.2
2022-08-12T12:58:35.772Z,5.8
2022-08-12T12:59:54.625Z,5.9
2022-08-12T13:00:20.510Z,5.7
2022-08-12T13:01:25.564Z,6.0
2022-08-12T13:02:07.843Z,5.8
2022-08-12T13:02:55.812Z,5.0
2022-08-12T13:03:49.405Z,4.8
2022-08-12T13:04:37.283Z,5.9
2022-08-12T13:05:27.700Z,4.2
2022-08-12T13:06:15.536Z,4.5
2022-08-12T13:07:06.707Z,3.7
2022-08-12T13:08:00.962Z,8.0
2022-08-12T13:08:48.953Z,10.1
2022-08-12T13:09:36.951Z,6.3
2022-08-12T13:10:24.437Z,5.8
2022-08-12T13:11:19.563Z,6.0
2022-08-12T13:12:08.189Z,6.4
2022-08-12T13:12:55.586Z,7.2
2022-08-12T13:14:10.466Z,5.9
2022-08-12T13:14:40.406Z,5.7
2022-08-12T13:15:45.016Z,17.3
2022-08-12T13:16:25.181Z,10.1
2022-08-12T13:17:14.700Z,11.4
2022-08-12T13:18:04.988Z,11.4
2022-08-12T13:18:52.417Z,7.8
2022-08-12T13:19:45.189Z,8.6
2022-08-12T13:20:38.145Z,8.0
2022-08-12T13:21:33.267Z,6.5
2022-08-12T13:22:23.968Z,7.5
2022-08-12T13:23:36.910Z,8.4
2022-08-12T13:24:10.485Z,5.9
2022-08-12T13:24:58.021Z,5.0
2022-08-12T13:25:46.281Z,7.2
2022-08-12T13:26:34.133Z,6.2
2022-08-12T13:27:21.623Z,5.1
2022-08-12T13:28:08.941Z,5.3
2022-08-12T13:28:56.249Z,6.3
2022-08-12T13:29:43.568Z,5.2
2022-08-12T13:30:36.159Z,4.6
2022-08-12T13:31:24.887Z,5.6
2022-08-12T13:32:18.567Z,4.8
2022-08-12T13:33:17.571Z,4.6
2022-08-12T13:34:32.690Z,5.4
2022-08-12T13:35:04.683Z,4.1
2022-08-12T13:36:05.046Z,4.1
2022-08-12T13:36:54.382Z,6.2
2022-08-12T13:37:44.118Z,4.3
2022-08-12T13:38:39.105Z,4.7
2022-08-12T13:39:26.548Z,5.3
2022-08-12T13:40:14.877Z,5.1
2022-08-12T13:41:02.665Z,5.5
2022-08-12T13:41:50.176Z,3.7
2022-08-12T13:42:37.513Z,3.5
2022-08-12T13:43:40.599Z,4.6
2022-08-12T13:44:22.182Z,4.7
2022-08-12T13:45:09.517Z,4.4
2022-08-12T13:45:56.821Z,5.1
2022-08-12T13:46:44.133Z,4.3
2022-08-12T13:47:41.436Z,4.3
2022-08-12T13:48:32.727Z,5.5
2022-08-12T13:49:53.724Z,4.4
2022-08-12T13:50:18.306Z,4.7
2022-08-12T13:51:14.140Z,4.6
2022-08-12T13:52:01.493Z,4.6
2022-08-12T13:52:48.819Z,4.6
2022-08-12T13:53:54.865Z,5.0
2022-08-12T13:54:35.020Z,4.7
2022-08-12T13:55:22.443Z,5.9
2022-08-12T13:56:18.629Z,5.7
2022-08-12T13:57:11.198Z,4.7
2022-08-12T13:58:04.446Z,5.1
2022-08-12T13:58:59.893Z,4.9
2022-08-12T13:59:48.402Z,5.5
2022-08-12T14:00:45.663Z,4.7
2022-08-12T14:01:33.406Z,6.1
2022-08-12T14:02:22.754Z,4.5
2022-08-12T14:03:11.702Z,4.8
2022-08-12T14:03:59.049Z,5.0
2022-08-12T14:04:56.405Z,5.8
2022-08-12T14:05:43.673Z,4.8
2022-08-12T14:06:32.155Z,6.7
2022-08-12T14:07:19.565Z,5.9
2022-08-12T14:08:09.551Z,5.0
2022-08-12T14:08:56.937Z,6.7
2022-08-12T14:09:44.256Z,7.4
2022-08-12T14:10:32.377Z,4.7
2022-08-12T14:11:27.825Z,5.5
2022-08-12T14:12:16.314Z,5.9
2022-08-12T14:13:03.804Z,5.9
2022-08-12T14:14:05.886Z,5.7
2022-08-12T14:14:55.021Z,7.0
2022-08-12T14:15:43.491Z,5.8
2022-08-12T14:16:48.158Z,6.2
2022-08-12T14:17:32.520Z,5.9
2022-08-12T14:18:25.364Z,6.0
2022-08-12T14:19:24.302Z,6.6
2022-08-12T14:20:10.128Z,6.3
2022-08-12T14:20:57.504Z,6.3
2022-08-12T14:22:00.610Z,7.8
2022-08-12T14:22:44.223Z,5.9
2022-08-12T14:24:05.018Z,6.8
2022-08-12T14:24:36.071Z,8.1
2022-08-12T14:25:28.158Z,7.1
2022-08-12T14:26:22.029Z,7.4
2022-08-12T14:27:10.780Z,6.1
2022-08-12T14:28:04.660Z,5.8
2022-08-12T14:28:57.660Z,6.2
2022-08-12T14:30:04.380Z,6.7
2022-08-12T14:30:59.689Z,5.9
2022-08-12T14:31:43.945Z,6.3
2022-08-12T14:32:31.377Z,6.7
2022-08-12T14:33:18.676Z,7.3
2022-08-12T14:34:08.776Z,6.9
2022-08-12T14:34:57.584Z,6.1
2022-08-12T14:35:48.445Z,5.2
2022-08-12T14:36:36.035Z,5.7
2022-08-12T14:38:25.873Z,6.1
2022-08-12T14:39:13.689Z,5.0
2022-08-12T14:40:01.468Z,4.7
2022-08-12T14:40:49.101Z,5.2
2022-08-12T14:41:48.175Z,6.8
2022-08-12T14:42:33.712Z,5.8
2022-08-12T14:43:21.437Z,4.2
2022-08-12T14:44:58.698Z,5.3
2022-08-12T14:45:10.565Z,4.3
2022-08-12T14:45:59.968Z,5.2
2022-08-12T14:46:47.566Z,4.9
2022-08-12T14:47:35.705Z,5.0
2022-08-12T14:48:24.054Z,5.1
2022-08-12T14:49:27.502Z,5.1
2022-08-12T14:50:41.097Z,4.4
2022-08-12T14:52:42.743Z,5.3
2022-08-12T14:53:13.391Z,4.5
2022-08-12T14:56:08.971Z,4.7
2022-08-12T14:57:23.466Z,4.3
2022-08-12T14:57:56.847Z,5.3
2022-08-12T14:58:51.968Z,5.8
2022-08-12T14:59:56.448Z,5.1
2022-08-12T15:00:37.834Z,4.9
2022-08-12T15:01:26.421Z,5.0
2022-08-12T15:02:18.398Z,4.3
2022-08-12T15:03:06.410Z,4.6
2022-08-12T15:03:58.300Z,5.1
2022-08-12T15:04:45.904Z,4.4
2022-08-12T15:06:05.483Z,5.4
2022-08-12T15:06:44.078Z,4.8
2022-08-12T15:07:34.396Z,5.0
2022-08-12T15:15:10.562Z,4.6
2022-08-12T15:22:53.901Z,4.6
2022-08-12T15:30:26.004Z,5.7
2022-08-12T15:38:08.604Z,4.9
2022-08-12T15:45:47.214Z,5.4
2022-08-12T15:53:20.868Z,4.7
2022-08-12T16:00:53.281Z,6.8
2022-08-12T16:08:27.466Z,5.3
2022-08-12T16:16:02.553Z,6.1
2022-08-12T16:23:51.477Z,5.4
2022-08-12T16:31:23.374Z,6.3
2022-08-12T16:36:58.501Z,5.5
2022-08-12T16:38:25.496Z,4.8
2022-08-12T16:38:43.609Z,5.1
2022-08-12T16:39:33.404Z,5.0
2022-08-12T16:40:30.688Z,5.3
2022-08-12T16:41:18.136Z,4.3
2022-08-12T16:42:06.284Z,5.3
2022-08-12T16:49:43.606Z,6.3
2022-08-12T16:57:16.261Z,6.4
2022-08-12T17:04:52.921Z,5.8
2022-08-12T17:12:25.549Z,8.2
2022-08-12T17:20:30.467Z,8.5
2022-08-12T17:27:40.199Z,8.9
2022-08-12T17:35:12.626Z,8.1
2022-08-12T17:42:47.880Z,8.4
2022-08-12T17:50:20.492Z,8.4
2022-08-12T17:57:53.816Z,9.5
2022-08-12T18:05:26.201Z,8.2
2022-08-12T18:13:08.506Z,8.3
2022-08-12T18:20:44.777Z,10.4
2022-08-12T18:28:19.410Z,10.8
2022-08-12T18:35:59.797Z,11.2
2022-08-12T18:43:37.090Z,10.7
2022-08-12T18:51:22.015Z,10.0
2022-08-12T18:58:59.659Z,11.0
2022-08-12T19:06:32.453Z,9.9
2022-08-12T19:14:04.923Z,9.1
2022-08-12T19:21:38.449Z,10.6
2022-08-12T19:29:12.569Z,10.0
2022-08-12T19:36:45.948Z,8.9
2022-08-12T19:44:18.834Z,11.2
2022-08-12T19:51:52.510Z,10.7
2022-08-12T19:59:24.833Z,9.0
2022-08-12T20:07:07.181Z,10.0
2022-08-12T20:14:39.521Z,9.3
2022-08-12T20:22:14.218Z,9.5
2022-08-12T20:29:47.043Z,10.9
2022-08-12T20:38:07.433Z,10.0
2022-08-12T20:45:09.037Z,9.4
2022-08-12T20:52:42.488Z,9.8
2022-08-12T21:00:17.770Z,9.1
2022-08-12T21:07:52.057Z,10.3
2022-08-12T21:15:53.467Z,9.6
2022-08-12T21:23:07.197Z,11.0
2022-08-12T21:30:39.588Z,11.6
2022-08-12T21:38:13.152Z,10.3
2022-08-12T21:46:00.607Z,9.6
2022-08-12T21:54:06.357Z,10.0
2022-08-12T22:01:20.202Z,8.1
2022-08-12T22:08:52.849Z,10.0
2022-08-12T22:16:25.181Z,10.0
2022-08-12T22:24:04.895Z,9.4
2022-08-12T22:31:38.081Z,10.0
2022-08-12T22:39:10.625Z,10.1
2022-08-12T22:46:52.986Z,8.6
2022-08-12T22:54:36.750Z,7.8
2022-08-12T23:02:08.517Z,8.7
2022-08-12T23:09:48.120Z,7.7
2022-08-12T23:17:40.603Z,8.8
2022-08-12T23:25:03.659Z,9.5
2022-08-12T23:32:37.006Z,7.8
2022-08-12T23:40:17.665Z,7.7
2022-08-12T23:47:50.637Z,9.3
2022-08-12T23:55:29.003Z,9.3
